Terminal Aerodrome Forecast
Issued by NWS

Home | Current Version | Previous Version | Text Only | Print | Product List | Glossary Off
Versions: 1 2 3 4 5 6 7 8 9 10 11 12 13 14 15

000
FTUS43 KGRB 131700
TAFAUW
TAF
KAUW 131740Z 1318/1418 27005KT P6SM BKN050
     FM132300 20005KT P6SM FEW050 SCT250
     FM140800 17005KT P6SM FEW140 BKN250
     FM141300 19007KT P6SM BKN120
     FM141700 22010KT P6SM SCT050 BKN100=

USA.gov is the U.S. government's official web portal to all federal, state and local government web resources and services.